Airfield :
LOGIN :

Register | Disclaimer

   EN    FR    IT 

 










Legend :    VFR   Marginal VFR   IFR   Intensive IFR   Very Intensive IFR
Visi :
Ceiling :
>= 8 km
>= 3000ft
5 to 8 km
1000 to 3000 ft
1500m to 5 km
500 to 1000 ft
800 to 1500m
200 to 500 ft
< 800m
< 200 ft
Symbols :   Thunderstorms  Fog  Heavy snow  Heavy precipitations  Wind > 20 kt
SIGMETs :     Misc.  Thunderstorms  Icing  Turbulence  Mountain Waves  Volcanic Ashes







- Airport Elevation : 46 ft
- IATA code : SNN


EINN - Shannon

CURRENT METAR :
  • 200900Z 24015KT 7000 -DZ FEW008 BKN026 BKN030 13/11 Q1012 TEMPO 3000 BKN012

EXPIRED METARs :
  • 200830Z 24015KT 6000 -RADZ FEW010 SCT016 BKN026 13/12 Q1012 TEMPO 3000 BKN012
  • 200800Z 25014KT 9999 -DZ FEW009 SCT014 BKN023 13/12 Q1012 NOSIG
  • 200730Z 25016KT 9999 -RADZ FEW009 SCT012 BKN021 13/12 Q1012 NOSIG
  • 200700Z 26012KT 9999 -RADZ SCT012 BKN022 13/12 Q1012 NOSIG
  • 200630Z 25015KT 9999 -RADZ BKN012 13/12 Q1012 NOSIG

TAF TAF EINN
Valid from the 20 at 06:00 until the 21 at 06:00 UTC


200500Z 2006/2106 25018KT 9999 SCT010 BKN020
BECMG 2006/2009 25008KT BKN012
TEMPO 2006/2009 3000 -RADZ BKN006
TEMPO 2009/2021 2000 -RADZ BKN004
PROB40
TEMPO 2010/2019 0300 RADZ FG BKN001
BECMG 2021/2024 20010KT
TEMPO 2022/2106 BKN018
BECMG 2104/2106 16010KT
No reported NOTAMs for that airfield.



MET'MAP, your aeronautical weather chart ! - Copyright ORBIFLY December 2007 - Disclaimer

ORBIFLY MET'MAP TEAM :

Programming & Development : Alexandra Zaïnal
Concept & Development : Baudouin d'Aumeries
Co-Development & Prog : Marc-Olivier Méhu
Technical & hardware support : Manuel Goepfert

Contact : metmap@orbifly.com




SOURCES & CREDITS :

   NOAA